<?xml version="1.0" encoding="UTF-8" standalone="no" ?>
<gpx xmlns="http://www.topografix.com/GPX/1/1" xmlns:xsi="http://www.w3.org/2001/XMLSchema-instance" xsi:schemaLocation="http://www.topografix.com/GPX/1/1 http://www.topografix.com/GPX/1/1/gpx.xsd" version="1.1" creator="VisuGPX - https://www.visugpx.com">
  <metadata>
    <name>ADAL Marly le 26avril 2018</name>
    <desc><![CDATA[ADAL Marly le 26avril 2018 en rando soutenue]]></desc>
  </metadata>
  <trk>
    <name><![CDATA[8556539-ADAL_SOUTENUE_MARLY LE ROI_26042018]]></name>
    <trkseg>
      <trkpt lat="48.86375" lon="2.08159">
        <ele>174</ele>
        <time>2018-04-25T18:57:26Z</time>
      </trkpt>
      <trkpt lat="48.86332" lon="2.08061">
        <ele>173</ele>
        <time>2018-04-25T18:58:26Z</time>
      </trkpt>
      <trkpt lat="48.86274" lon="2.07933">
        <ele>155</ele>
        <time>2018-04-25T18:59:26Z</time>
      </trkpt>
      <trkpt lat="48.86238" lon="2.0786">
        <ele>141</ele>
        <time>2018-04-25T19:00:26Z</time>
      </trkpt>
      <trkpt lat="48.86189" lon="2.07757">
        <ele>130</ele>
        <time>2018-04-25T19:01:26Z</time>
      </trkpt>
      <trkpt lat="48.86135" lon="2.0764">
        <ele>124</ele>
        <time>2018-04-25T19:02:26Z</time>
      </trkpt>
      <trkpt lat="48.86111" lon="2.07593">
        <ele>126</ele>
        <time>2018-04-25T19:03:26Z</time>
      </trkpt>
      <trkpt lat="48.86073" lon="2.07524">
        <ele>130</ele>
        <time>2018-04-25T19:04:26Z</time>
      </trkpt>
      <trkpt lat="48.86075" lon="2.07354">
        <ele>136</ele>
        <time>2018-04-25T19:05:26Z</time>
      </trkpt>
      <trkpt lat="48.86077" lon="2.07219">
        <ele>137</ele>
        <time>2018-04-25T19:06:26Z</time>
      </trkpt>
      <trkpt lat="48.86076" lon="2.07064">
        <ele>138</ele>
        <time>2018-04-25T19:07:26Z</time>
      </trkpt>
      <trkpt lat="48.86076" lon="2.06776">
        <ele>133</ele>
        <time>2018-04-25T19:08:26Z</time>
      </trkpt>
      <trkpt lat="48.86078" lon="2.06705">
        <ele>134</ele>
        <time>2018-04-25T19:09:26Z</time>
      </trkpt>
      <trkpt lat="48.86106" lon="2.06579">
        <ele>138</ele>
        <time>2018-04-25T19:10:26Z</time>
      </trkpt>
      <trkpt lat="48.86147" lon="2.06406">
        <ele>138</ele>
        <time>2018-04-25T19:11:26Z</time>
      </trkpt>
      <trkpt lat="48.86192" lon="2.06221">
        <ele>143</ele>
        <time>2018-04-25T19:12:26Z</time>
      </trkpt>
      <trkpt lat="48.86241" lon="2.06004">
        <ele>133</ele>
        <time>2018-04-25T19:13:26Z</time>
      </trkpt>
      <trkpt lat="48.86396" lon="2.05831">
        <ele>124</ele>
        <time>2018-04-25T19:14:26Z</time>
      </trkpt>
      <trkpt lat="48.86481" lon="2.05731">
        <ele>119</ele>
        <time>2018-04-25T19:15:26Z</time>
      </trkpt>
      <trkpt lat="48.86535" lon="2.0567">
        <ele>121</ele>
        <time>2018-04-25T19:16:26Z</time>
      </trkpt>
      <trkpt lat="48.86566" lon="2.05623">
        <ele>127</ele>
        <time>2018-04-25T19:17:26Z</time>
      </trkpt>
      <trkpt lat="48.86537" lon="2.05603">
        <ele>126</ele>
        <time>2018-04-25T19:18:26Z</time>
      </trkpt>
      <trkpt lat="48.86485" lon="2.05544">
        <ele>126</ele>
        <time>2018-04-25T19:19:26Z</time>
      </trkpt>
      <trkpt lat="48.8641" lon="2.05438">
        <ele>131</ele>
        <time>2018-04-25T19:20:26Z</time>
      </trkpt>
      <trkpt lat="48.86371" lon="2.0538">
        <ele>136</ele>
        <time>2018-04-25T19:21:26Z</time>
      </trkpt>
      <trkpt lat="48.86329" lon="2.0532">
        <ele>140</ele>
        <time>2018-04-25T19:22:26Z</time>
      </trkpt>
      <trkpt lat="48.86266" lon="2.05248">
        <ele>144</ele>
        <time>2018-04-25T19:23:26Z</time>
      </trkpt>
      <trkpt lat="48.86231" lon="2.05193">
        <ele>144</ele>
        <time>2018-04-25T19:24:26Z</time>
      </trkpt>
      <trkpt lat="48.86185" lon="2.05134">
        <ele>144</ele>
        <time>2018-04-25T19:25:26Z</time>
      </trkpt>
      <trkpt lat="48.86146" lon="2.05079">
        <ele>147</ele>
        <time>2018-04-25T19:26:26Z</time>
      </trkpt>
      <trkpt lat="48.86081" lon="2.05062">
        <ele>153</ele>
        <time>2018-04-25T19:27:26Z</time>
      </trkpt>
      <trkpt lat="48.86082" lon="2.05006">
        <ele>158</ele>
        <time>2018-04-25T19:28:26Z</time>
      </trkpt>
      <trkpt lat="48.86085" lon="2.04956">
        <ele>162</ele>
        <time>2018-04-25T19:29:26Z</time>
      </trkpt>
      <trkpt lat="48.86247" lon="2.04991">
        <ele>152</ele>
        <time>2018-04-25T19:30:26Z</time>
      </trkpt>
      <trkpt lat="48.86319" lon="2.0501">
        <ele>150</ele>
        <time>2018-04-25T19:31:26Z</time>
      </trkpt>
      <trkpt lat="48.86344" lon="2.05036">
        <ele>148</ele>
        <time>2018-04-25T19:32:26Z</time>
      </trkpt>
      <trkpt lat="48.86424" lon="2.04998">
        <ele>149</ele>
        <time>2018-04-25T19:33:26Z</time>
      </trkpt>
      <trkpt lat="48.86549" lon="2.04934">
        <ele>151</ele>
        <time>2018-04-25T19:34:26Z</time>
      </trkpt>
      <trkpt lat="48.86661" lon="2.04878">
        <ele>149</ele>
        <time>2018-04-25T19:35:26Z</time>
      </trkpt>
      <trkpt lat="48.86667" lon="2.04901">
        <ele>148</ele>
        <time>2018-04-25T19:36:26Z</time>
      </trkpt>
      <trkpt lat="48.86717" lon="2.04892">
        <ele>145</ele>
        <time>2018-04-25T19:37:26Z</time>
      </trkpt>
      <trkpt lat="48.86787" lon="2.04895">
        <ele>141</ele>
        <time>2018-04-25T19:38:26Z</time>
      </trkpt>
      <trkpt lat="48.86839" lon="2.04915">
        <ele>139</ele>
        <time>2018-04-25T19:39:26Z</time>
      </trkpt>
      <trkpt lat="48.86906" lon="2.04965">
        <ele>134</ele>
        <time>2018-04-25T19:40:26Z</time>
      </trkpt>
      <trkpt lat="48.86971" lon="2.04997">
        <ele>136</ele>
        <time>2018-04-25T19:41:26Z</time>
      </trkpt>
      <trkpt lat="48.86999" lon="2.04977">
        <ele>138</ele>
        <time>2018-04-25T19:42:26Z</time>
      </trkpt>
      <trkpt lat="48.87049" lon="2.0501">
        <ele>142</ele>
        <time>2018-04-25T19:43:26Z</time>
      </trkpt>
      <trkpt lat="48.87095" lon="2.05069">
        <ele>146</ele>
        <time>2018-04-25T19:44:26Z</time>
      </trkpt>
      <trkpt lat="48.87123" lon="2.05185">
        <ele>147</ele>
        <time>2018-04-25T19:45:26Z</time>
      </trkpt>
      <trkpt lat="48.87203" lon="2.05179">
        <ele>160</ele>
        <time>2018-04-25T19:46:26Z</time>
      </trkpt>
      <trkpt lat="48.87275" lon="2.05165">
        <ele>173</ele>
        <time>2018-04-25T19:47:26Z</time>
      </trkpt>
      <trkpt lat="48.87324" lon="2.05162">
        <ele>178</ele>
        <time>2018-04-25T19:48:26Z</time>
      </trkpt>
      <trkpt lat="48.87387" lon="2.05153">
        <ele>181</ele>
        <time>2018-04-25T19:49:26Z</time>
      </trkpt>
      <trkpt lat="48.87406" lon="2.05245">
        <ele>180</ele>
        <time>2018-04-25T19:50:26Z</time>
      </trkpt>
      <trkpt lat="48.87419" lon="2.05368">
        <ele>179</ele>
        <time>2018-04-25T19:51:26Z</time>
      </trkpt>
      <trkpt lat="48.87435" lon="2.05458">
        <ele>176</ele>
        <time>2018-04-25T19:52:26Z</time>
      </trkpt>
      <trkpt lat="48.87453" lon="2.05535">
        <ele>175</ele>
        <time>2018-04-25T19:53:26Z</time>
      </trkpt>
      <trkpt lat="48.87517" lon="2.05521">
        <ele>178</ele>
        <time>2018-04-25T19:54:26Z</time>
      </trkpt>
      <trkpt lat="48.87615" lon="2.05508">
        <ele>179</ele>
        <time>2018-04-25T19:55:26Z</time>
      </trkpt>
      <trkpt lat="48.87702" lon="2.05496">
        <ele>180</ele>
        <time>2018-04-25T19:56:26Z</time>
      </trkpt>
      <trkpt lat="48.87759" lon="2.05481">
        <ele>179</ele>
        <time>2018-04-25T19:57:26Z</time>
      </trkpt>
      <trkpt lat="48.8782" lon="2.05458">
        <ele>174</ele>
        <time>2018-04-25T19:58:26Z</time>
      </trkpt>
      <trkpt lat="48.87843" lon="2.05416">
        <ele>170</ele>
        <time>2018-04-25T19:59:26Z</time>
      </trkpt>
      <trkpt lat="48.87865" lon="2.0536">
        <ele>168</ele>
        <time>2018-04-25T20:00:26Z</time>
      </trkpt>
      <trkpt lat="48.8787" lon="2.05348">
        <ele>168</ele>
        <time>2018-04-25T20:01:26Z</time>
      </trkpt>
      <trkpt lat="48.87884" lon="2.05311">
        <ele>166</ele>
        <time>2018-04-25T20:02:26Z</time>
      </trkpt>
      <trkpt lat="48.87899" lon="2.0528">
        <ele>164</ele>
        <time>2018-04-25T20:03:26Z</time>
      </trkpt>
      <trkpt lat="48.87911" lon="2.05245">
        <ele>163</ele>
        <time>2018-04-25T20:04:26Z</time>
      </trkpt>
      <trkpt lat="48.87965" lon="2.05092">
        <ele>154</ele>
        <time>2018-04-25T20:05:26Z</time>
      </trkpt>
      <trkpt lat="48.88024" lon="2.04934">
        <ele>143</ele>
        <time>2018-04-25T20:06:26Z</time>
      </trkpt>
      <trkpt lat="48.88088" lon="2.04902">
        <ele>141</ele>
        <time>2018-04-25T20:07:26Z</time>
      </trkpt>
      <trkpt lat="48.88189" lon="2.04855">
        <ele>141</ele>
        <time>2018-04-25T20:08:26Z</time>
      </trkpt>
      <trkpt lat="48.88284" lon="2.04789">
        <ele>137</ele>
        <time>2018-04-25T20:09:26Z</time>
      </trkpt>
      <trkpt lat="48.88321" lon="2.04702">
        <ele>135</ele>
        <time>2018-04-25T20:10:26Z</time>
      </trkpt>
      <trkpt lat="48.88375" lon="2.04585">
        <ele>134</ele>
        <time>2018-04-25T20:11:26Z</time>
      </trkpt>
      <trkpt lat="48.88399" lon="2.04476">
        <ele>138</ele>
        <time>2018-04-25T20:12:26Z</time>
      </trkpt>
      <trkpt lat="48.88408" lon="2.04368">
        <ele>140</ele>
        <time>2018-04-25T20:13:26Z</time>
      </trkpt>
      <trkpt lat="48.88414" lon="2.04261">
        <ele>143</ele>
        <time>2018-04-25T20:14:26Z</time>
      </trkpt>
      <trkpt lat="48.88425" lon="2.04136">
        <ele>152</ele>
        <time>2018-04-25T20:15:26Z</time>
      </trkpt>
      <trkpt lat="48.88514" lon="2.04185">
        <ele>151</ele>
        <time>2018-04-25T20:16:26Z</time>
      </trkpt>
      <trkpt lat="48.88594" lon="2.04232">
        <ele>144</ele>
        <time>2018-04-25T20:17:26Z</time>
      </trkpt>
      <trkpt lat="48.88676" lon="2.04273">
        <ele>139</ele>
        <time>2018-04-25T20:18:26Z</time>
      </trkpt>
      <trkpt lat="48.88776" lon="2.04344">
        <ele>133</ele>
        <time>2018-04-25T20:19:26Z</time>
      </trkpt>
      <trkpt lat="48.88868" lon="2.044">
        <ele>128</ele>
        <time>2018-04-25T20:20:26Z</time>
      </trkpt>
      <trkpt lat="48.88955" lon="2.04444">
        <ele>126</ele>
        <time>2018-04-25T20:21:26Z</time>
      </trkpt>
      <trkpt lat="48.89046" lon="2.04362">
        <ele>127</ele>
        <time>2018-04-25T20:22:26Z</time>
      </trkpt>
      <trkpt lat="48.89141" lon="2.04283">
        <ele>128</ele>
        <time>2018-04-25T20:23:26Z</time>
      </trkpt>
      <trkpt lat="48.89244" lon="2.04203">
        <ele>125</ele>
        <time>2018-04-25T20:24:26Z</time>
      </trkpt>
      <trkpt lat="48.89328" lon="2.04133">
        <ele>126</ele>
        <time>2018-04-25T20:25:26Z</time>
      </trkpt>
      <trkpt lat="48.89415" lon="2.04047">
        <ele>116</ele>
        <time>2018-04-25T20:26:26Z</time>
      </trkpt>
      <trkpt lat="48.89462" lon="2.04104">
        <ele>113</ele>
        <time>2018-04-25T20:27:26Z</time>
      </trkpt>
      <trkpt lat="48.89518" lon="2.04176">
        <ele>108</ele>
        <time>2018-04-25T20:28:26Z</time>
      </trkpt>
      <trkpt lat="48.89577" lon="2.04104">
        <ele>98</ele>
        <time>2018-04-25T20:29:26Z</time>
      </trkpt>
      <trkpt lat="48.89614" lon="2.04162">
        <ele>97</ele>
        <time>2018-04-25T20:30:26Z</time>
      </trkpt>
      <trkpt lat="48.89645" lon="2.04226">
        <ele>93</ele>
        <time>2018-04-25T20:31:26Z</time>
      </trkpt>
      <trkpt lat="48.89662" lon="2.04265">
        <ele>92</ele>
        <time>2018-04-25T20:32:26Z</time>
      </trkpt>
      <trkpt lat="48.89686" lon="2.04291">
        <ele>91</ele>
        <time>2018-04-25T20:33:26Z</time>
      </trkpt>
      <trkpt lat="48.89742" lon="2.04479">
        <ele>89</ele>
        <time>2018-04-25T20:34:26Z</time>
      </trkpt>
      <trkpt lat="48.89767" lon="2.04613">
        <ele>89</ele>
        <time>2018-04-25T20:35:26Z</time>
      </trkpt>
      <trkpt lat="48.89811" lon="2.04582">
        <ele>90</ele>
        <time>2018-04-25T20:36:26Z</time>
      </trkpt>
      <trkpt lat="48.89844" lon="2.04552">
        <ele>94</ele>
        <time>2018-04-25T20:37:26Z</time>
      </trkpt>
      <trkpt lat="48.89902" lon="2.04491">
        <ele>108</ele>
        <time>2018-04-25T20:38:26Z</time>
      </trkpt>
      <trkpt lat="48.89905" lon="2.04423">
        <ele>111</ele>
        <time>2018-04-25T20:39:26Z</time>
      </trkpt>
      <trkpt lat="48.89948" lon="2.04423">
        <ele>117</ele>
        <time>2018-04-25T20:40:26Z</time>
      </trkpt>
      <trkpt lat="48.89976" lon="2.0444">
        <ele>120</ele>
        <time>2018-04-25T20:41:26Z</time>
      </trkpt>
      <trkpt lat="48.89994" lon="2.04406">
        <ele>125</ele>
        <time>2018-04-25T20:42:26Z</time>
      </trkpt>
      <trkpt lat="48.9003" lon="2.04371">
        <ele>131</ele>
        <time>2018-04-25T20:43:26Z</time>
      </trkpt>
      <trkpt lat="48.90092" lon="2.04361">
        <ele>137</ele>
        <time>2018-04-25T20:44:26Z</time>
      </trkpt>
      <trkpt lat="48.90081" lon="2.04299">
        <ele>139</ele>
        <time>2018-04-25T20:45:26Z</time>
      </trkpt>
      <trkpt lat="48.90071" lon="2.04233">
        <ele>139</ele>
        <time>2018-04-25T20:46:26Z</time>
      </trkpt>
      <trkpt lat="48.90072" lon="2.04145">
        <ele>142</ele>
        <time>2018-04-25T20:47:26Z</time>
      </trkpt>
      <trkpt lat="48.90119" lon="2.04123">
        <ele>144</ele>
        <time>2018-04-25T20:48:26Z</time>
      </trkpt>
      <trkpt lat="48.90143" lon="2.04066">
        <ele>146</ele>
        <time>2018-04-25T20:49:26Z</time>
      </trkpt>
      <trkpt lat="48.90183" lon="2.03977">
        <ele>144</ele>
        <time>2018-04-25T20:50:26Z</time>
      </trkpt>
      <trkpt lat="48.90158" lon="2.03957">
        <ele>146</ele>
        <time>2018-04-25T20:51:26Z</time>
      </trkpt>
      <trkpt lat="48.90085" lon="2.03907">
        <ele>152</ele>
        <time>2018-04-25T20:52:26Z</time>
      </trkpt>
      <trkpt lat="48.90082" lon="2.0394">
        <ele>150</ele>
        <time>2018-04-25T20:53:26Z</time>
      </trkpt>
      <trkpt lat="48.90051" lon="2.03913">
        <ele>148</ele>
        <time>2018-04-25T20:54:26Z</time>
      </trkpt>
      <trkpt lat="48.90026" lon="2.03871">
        <ele>147</ele>
        <time>2018-04-25T20:55:26Z</time>
      </trkpt>
      <trkpt lat="48.90004" lon="2.03825">
        <ele>147</ele>
        <time>2018-04-25T20:56:26Z</time>
      </trkpt>
      <trkpt lat="48.89953" lon="2.03798">
        <ele>139</ele>
        <time>2018-04-25T20:57:26Z</time>
      </trkpt>
      <trkpt lat="48.89926" lon="2.03764">
        <ele>136</ele>
        <time>2018-04-25T20:58:26Z</time>
      </trkpt>
      <trkpt lat="48.89897" lon="2.03713">
        <ele>134</ele>
        <time>2018-04-25T20:59:26Z</time>
      </trkpt>
      <trkpt lat="48.89887" lon="2.03663">
        <ele>135</ele>
        <time>2018-04-25T21:00:26Z</time>
      </trkpt>
      <trkpt lat="48.8986" lon="2.03643">
        <ele>132</ele>
        <time>2018-04-25T21:01:26Z</time>
      </trkpt>
      <trkpt lat="48.89843" lon="2.03591">
        <ele>132</ele>
        <time>2018-04-25T21:02:26Z</time>
      </trkpt>
      <trkpt lat="48.89821" lon="2.03507">
        <ele>131</ele>
        <time>2018-04-25T21:03:26Z</time>
      </trkpt>
      <trkpt lat="48.89797" lon="2.03406">
        <ele>134</ele>
        <time>2018-04-25T21:04:26Z</time>
      </trkpt>
      <trkpt lat="48.89762" lon="2.03422">
        <ele>131</ele>
        <time>2018-04-25T21:05:26Z</time>
      </trkpt>
      <trkpt lat="48.89689" lon="2.03472">
        <ele>118</ele>
        <time>2018-04-25T21:06:26Z</time>
      </trkpt>
      <trkpt lat="48.89687" lon="2.03446">
        <ele>119</ele>
        <time>2018-04-25T21:07:26Z</time>
      </trkpt>
      <trkpt lat="48.89667" lon="2.03361">
        <ele>122</ele>
        <time>2018-04-25T21:08:26Z</time>
      </trkpt>
      <trkpt lat="48.89651" lon="2.03274">
        <ele>129</ele>
        <time>2018-04-25T21:09:26Z</time>
      </trkpt>
      <trkpt lat="48.89595" lon="2.03268">
        <ele>126</ele>
        <time>2018-04-25T21:10:26Z</time>
      </trkpt>
      <trkpt lat="48.89527" lon="2.03259">
        <ele>122</ele>
        <time>2018-04-25T21:11:26Z</time>
      </trkpt>
      <trkpt lat="48.89482" lon="2.03229">
        <ele>119</ele>
        <time>2018-04-25T21:12:26Z</time>
      </trkpt>
      <trkpt lat="48.89445" lon="2.03218">
        <ele>114</ele>
        <time>2018-04-25T21:13:26Z</time>
      </trkpt>
      <trkpt lat="48.89429" lon="2.03223">
        <ele>111</ele>
        <time>2018-04-25T21:14:26Z</time>
      </trkpt>
      <trkpt lat="48.89419" lon="2.03188">
        <ele>111</ele>
        <time>2018-04-25T21:15:26Z</time>
      </trkpt>
      <trkpt lat="48.89396" lon="2.0318">
        <ele>108</ele>
        <time>2018-04-25T21:16:26Z</time>
      </trkpt>
      <trkpt lat="48.89354" lon="2.03195">
        <ele>103</ele>
        <time>2018-04-25T21:17:26Z</time>
      </trkpt>
      <trkpt lat="48.89323" lon="2.0322">
        <ele>100</ele>
        <time>2018-04-25T21:18:26Z</time>
      </trkpt>
      <trkpt lat="48.89322" lon="2.03159">
        <ele>101</ele>
        <time>2018-04-25T21:19:26Z</time>
      </trkpt>
      <trkpt lat="48.89319" lon="2.03086">
        <ele>104</ele>
        <time>2018-04-25T21:20:26Z</time>
      </trkpt>
      <trkpt lat="48.89295" lon="2.03012">
        <ele>104</ele>
        <time>2018-04-25T21:21:26Z</time>
      </trkpt>
      <trkpt lat="48.89275" lon="2.02934">
        <ele>106</ele>
        <time>2018-04-25T21:22:26Z</time>
      </trkpt>
      <trkpt lat="48.89263" lon="2.02865">
        <ele>107</ele>
        <time>2018-04-25T21:23:26Z</time>
      </trkpt>
      <trkpt lat="48.89252" lon="2.02815">
        <ele>106</ele>
        <time>2018-04-25T21:24:26Z</time>
      </trkpt>
      <trkpt lat="48.89285" lon="2.02793">
        <ele>109</ele>
        <time>2018-04-25T21:25:26Z</time>
      </trkpt>
      <trkpt lat="48.89309" lon="2.02752">
        <ele>113</ele>
        <time>2018-04-25T21:26:26Z</time>
      </trkpt>
      <trkpt lat="48.89286" lon="2.0267">
        <ele>113</ele>
        <time>2018-04-25T21:27:26Z</time>
      </trkpt>
      <trkpt lat="48.89266" lon="2.02593">
        <ele>115</ele>
        <time>2018-04-25T21:28:26Z</time>
      </trkpt>
      <trkpt lat="48.8925" lon="2.02528">
        <ele>112</ele>
        <time>2018-04-25T21:29:26Z</time>
      </trkpt>
      <trkpt lat="48.8935" lon="2.02507">
        <ele>125</ele>
        <time>2018-04-25T21:30:26Z</time>
      </trkpt>
      <trkpt lat="48.89408" lon="2.02498">
        <ele>135</ele>
        <time>2018-04-25T21:31:26Z</time>
      </trkpt>
      <trkpt lat="48.89401" lon="2.02463">
        <ele>136</ele>
        <time>2018-04-25T21:32:26Z</time>
      </trkpt>
      <trkpt lat="48.89388" lon="2.02413">
        <ele>136</ele>
        <time>2018-04-25T21:33:26Z</time>
      </trkpt>
      <trkpt lat="48.89363" lon="2.02343">
        <ele>132</ele>
        <time>2018-04-25T21:34:26Z</time>
      </trkpt>
      <trkpt lat="48.89335" lon="2.02281">
        <ele>128</ele>
        <time>2018-04-25T21:35:26Z</time>
      </trkpt>
      <trkpt lat="48.89306" lon="2.02232">
        <ele>125</ele>
        <time>2018-04-25T21:36:26Z</time>
      </trkpt>
      <trkpt lat="48.89283" lon="2.02196">
        <ele>122</ele>
        <time>2018-04-25T21:37:26Z</time>
      </trkpt>
      <trkpt lat="48.89273" lon="2.0217">
        <ele>120</ele>
        <time>2018-04-25T21:38:26Z</time>
      </trkpt>
      <trkpt lat="48.8923" lon="2.02159">
        <ele>115</ele>
        <time>2018-04-25T21:39:26Z</time>
      </trkpt>
      <trkpt lat="48.89143" lon="2.02159">
        <ele>115</ele>
        <time>2018-04-25T21:40:26Z</time>
      </trkpt>
      <trkpt lat="48.89074" lon="2.02174">
        <ele>119</ele>
        <time>2018-04-25T21:41:26Z</time>
      </trkpt>
      <trkpt lat="48.88994" lon="2.02158">
        <ele>125</ele>
        <time>2018-04-25T21:42:26Z</time>
      </trkpt>
      <trkpt lat="48.88927" lon="2.02115">
        <ele>128</ele>
        <time>2018-04-25T21:43:26Z</time>
      </trkpt>
      <trkpt lat="48.88864" lon="2.02068">
        <ele>135</ele>
        <time>2018-04-25T21:44:26Z</time>
      </trkpt>
      <trkpt lat="48.88813" lon="2.02001">
        <ele>141</ele>
        <time>2018-04-25T21:45:26Z</time>
      </trkpt>
      <trkpt lat="48.88754" lon="2.01912">
        <ele>147</ele>
        <time>2018-04-25T21:46:26Z</time>
      </trkpt>
      <trkpt lat="48.88693" lon="2.01818">
        <ele>155</ele>
        <time>2018-04-25T21:47:26Z</time>
      </trkpt>
      <trkpt lat="48.88633" lon="2.01736">
        <ele>165</ele>
        <time>2018-04-25T21:48:26Z</time>
      </trkpt>
      <trkpt lat="48.88576" lon="2.01645">
        <ele>173</ele>
        <time>2018-04-25T21:49:26Z</time>
      </trkpt>
      <trkpt lat="48.88519" lon="2.01549">
        <ele>174</ele>
        <time>2018-04-25T21:50:26Z</time>
      </trkpt>
      <trkpt lat="48.88576" lon="2.01493">
        <ele>171</ele>
        <time>2018-04-25T21:51:26Z</time>
      </trkpt>
      <trkpt lat="48.88619" lon="2.01413">
        <ele>164</ele>
        <time>2018-04-25T21:52:26Z</time>
      </trkpt>
      <trkpt lat="48.88637" lon="2.01332">
        <ele>167</ele>
        <time>2018-04-25T21:53:26Z</time>
      </trkpt>
      <trkpt lat="48.88631" lon="2.01278">
        <ele>170</ele>
        <time>2018-04-25T21:54:26Z</time>
      </trkpt>
      <trkpt lat="48.88616" lon="2.0127">
        <ele>171</ele>
        <time>2018-04-25T21:55:26Z</time>
      </trkpt>
      <trkpt lat="48.88624" lon="2.01146">
        <ele>179</ele>
        <time>2018-04-25T21:56:26Z</time>
      </trkpt>
      <trkpt lat="48.88625" lon="2.01058">
        <ele>180</ele>
        <time>2018-04-25T21:57:26Z</time>
      </trkpt>
      <trkpt lat="48.8865" lon="2.00968">
        <ele>177</ele>
        <time>2018-04-25T21:58:26Z</time>
      </trkpt>
      <trkpt lat="48.88692" lon="2.00973">
        <ele>176</ele>
        <time>2018-04-25T21:59:26Z</time>
      </trkpt>
      <trkpt lat="48.88739" lon="2.00874">
        <ele>176</ele>
        <time>2018-04-25T22:00:26Z</time>
      </trkpt>
      <trkpt lat="48.88793" lon="2.00777">
        <ele>174</ele>
        <time>2018-04-25T22:01:26Z</time>
      </trkpt>
      <trkpt lat="48.88829" lon="2.00719">
        <ele>175</ele>
        <time>2018-04-25T22:02:26Z</time>
      </trkpt>
      <trkpt lat="48.8884" lon="2.00671">
        <ele>177</ele>
        <time>2018-04-25T22:03:26Z</time>
      </trkpt>
      <trkpt lat="48.88837" lon="2.00631">
        <ele>177</ele>
        <time>2018-04-25T22:04:26Z</time>
      </trkpt>
      <trkpt lat="48.88903" lon="2.00612">
        <ele>180</ele>
        <time>2018-04-25T22:05:26Z</time>
      </trkpt>
      <trkpt lat="48.88999" lon="2.00573">
        <ele>175</ele>
        <time>2018-04-25T22:06:26Z</time>
      </trkpt>
      <trkpt lat="48.8904" lon="2.00556">
        <ele>172</ele>
        <time>2018-04-25T22:07:26Z</time>
      </trkpt>
      <trkpt lat="48.89063" lon="2.00548">
        <ele>171</ele>
        <time>2018-04-25T22:08:26Z</time>
      </trkpt>
      <trkpt lat="48.89086" lon="2.00539">
        <ele>169</ele>
        <time>2018-04-25T22:09:26Z</time>
      </trkpt>
      <trkpt lat="48.89116" lon="2.00529">
        <ele>168</ele>
        <time>2018-04-25T22:10:26Z</time>
      </trkpt>
      <trkpt lat="48.89144" lon="2.00506">
        <ele>166</ele>
        <time>2018-04-25T22:11:26Z</time>
      </trkpt>
      <trkpt lat="48.89168" lon="2.00478">
        <ele>164</ele>
        <time>2018-04-25T22:12:26Z</time>
      </trkpt>
      <trkpt lat="48.89158" lon="2.00423">
        <ele>163</ele>
        <time>2018-04-25T22:13:26Z</time>
      </trkpt>
      <trkpt lat="48.8912" lon="2.00354">
        <ele>165</ele>
        <time>2018-04-25T22:14:26Z</time>
      </trkpt>
      <trkpt lat="48.89161" lon="2.00347">
        <ele>159</ele>
        <time>2018-04-25T22:15:26Z</time>
      </trkpt>
      <trkpt lat="48.89226" lon="2.00341">
        <ele>149</ele>
        <time>2018-04-25T22:16:26Z</time>
      </trkpt>
      <trkpt lat="48.89236" lon="2.00277">
        <ele>147</ele>
        <time>2018-04-25T22:17:26Z</time>
      </trkpt>
      <trkpt lat="48.89214" lon="2.00218">
        <ele>147</ele>
        <time>2018-04-25T22:18:26Z</time>
      </trkpt>
      <trkpt lat="48.89189" lon="2.00173">
        <ele>148</ele>
        <time>2018-04-25T22:19:26Z</time>
      </trkpt>
      <trkpt lat="48.89152" lon="2.00143">
        <ele>152</ele>
        <time>2018-04-25T22:20:26Z</time>
      </trkpt>
      <trkpt lat="48.89128" lon="2.00088">
        <ele>156</ele>
        <time>2018-04-25T22:21:26Z</time>
      </trkpt>
      <trkpt lat="48.8911" lon="2.00047">
        <ele>159</ele>
        <time>2018-04-25T22:22:26Z</time>
      </trkpt>
      <trkpt lat="48.89096" lon="1.99998">
        <ele>161</ele>
        <time>2018-04-25T22:23:26Z</time>
      </trkpt>
      <trkpt lat="48.89106" lon="1.99968">
        <ele>159</ele>
        <time>2018-04-25T22:24:26Z</time>
      </trkpt>
      <trkpt lat="48.89098" lon="1.9991">
        <ele>160</ele>
        <time>2018-04-25T22:25:26Z</time>
      </trkpt>
      <trkpt lat="48.89093" lon="1.99856">
        <ele>158</ele>
        <time>2018-04-25T22:26:26Z</time>
      </trkpt>
      <trkpt lat="48.89079" lon="1.99817">
        <ele>158</ele>
        <time>2018-04-25T22:27:26Z</time>
      </trkpt>
      <trkpt lat="48.89059" lon="1.99817">
        <ele>161</ele>
        <time>2018-04-25T22:28:26Z</time>
      </trkpt>
      <trkpt lat="48.89048" lon="1.99754">
        <ele>160</ele>
        <time>2018-04-25T22:29:26Z</time>
      </trkpt>
      <trkpt lat="48.89024" lon="1.99716">
        <ele>162</ele>
        <time>2018-04-25T22:30:26Z</time>
      </trkpt>
      <trkpt lat="48.88998" lon="1.99709">
        <ele>165</ele>
        <time>2018-04-25T22:31:26Z</time>
      </trkpt>
      <trkpt lat="48.88988" lon="1.99646">
        <ele>163</ele>
        <time>2018-04-25T22:32:26Z</time>
      </trkpt>
      <trkpt lat="48.88976" lon="1.99602">
        <ele>163</ele>
        <time>2018-04-25T22:33:26Z</time>
      </trkpt>
      <trkpt lat="48.88964" lon="1.9957">
        <ele>164</ele>
        <time>2018-04-25T22:34:26Z</time>
      </trkpt>
      <trkpt lat="48.88967" lon="1.99546">
        <ele>164</ele>
        <time>2018-04-25T22:35:26Z</time>
      </trkpt>
      <trkpt lat="48.88983" lon="1.99515">
        <ele>162</ele>
        <time>2018-04-25T22:36:26Z</time>
      </trkpt>
      <trkpt lat="48.89002" lon="1.99488">
        <ele>160</ele>
        <time>2018-04-25T22:37:26Z</time>
      </trkpt>
      <trkpt lat="48.88988" lon="1.99477">
        <ele>162</ele>
        <time>2018-04-25T22:38:26Z</time>
      </trkpt>
      <trkpt lat="48.88966" lon="1.99423">
        <ele>164</ele>
        <time>2018-04-25T22:39:26Z</time>
      </trkpt>
      <trkpt lat="48.88945" lon="1.99382">
        <ele>164</ele>
        <time>2018-04-25T22:40:26Z</time>
      </trkpt>
      <trkpt lat="48.88921" lon="1.99329">
        <ele>163</ele>
        <time>2018-04-25T22:41:26Z</time>
      </trkpt>
      <trkpt lat="48.88878" lon="1.99283">
        <ele>167</ele>
        <time>2018-04-25T22:42:26Z</time>
      </trkpt>
      <trkpt lat="48.88832" lon="1.99247">
        <ele>169</ele>
        <time>2018-04-25T22:43:26Z</time>
      </trkpt>
      <trkpt lat="48.8879" lon="1.99225">
        <ele>171</ele>
        <time>2018-04-25T22:44:26Z</time>
      </trkpt>
      <trkpt lat="48.88751" lon="1.99203">
        <ele>172</ele>
        <time>2018-04-25T22:45:26Z</time>
      </trkpt>
      <trkpt lat="48.8871" lon="1.99157">
        <ele>173</ele>
        <time>2018-04-25T22:46:26Z</time>
      </trkpt>
      <trkpt lat="48.88676" lon="1.99121">
        <ele>174</ele>
        <time>2018-04-25T22:47:26Z</time>
      </trkpt>
      <trkpt lat="48.88653" lon="1.99089">
        <ele>174</ele>
        <time>2018-04-25T22:48:26Z</time>
      </trkpt>
      <trkpt lat="48.88632" lon="1.9904">
        <ele>173</ele>
        <time>2018-04-25T22:49:26Z</time>
      </trkpt>
      <trkpt lat="48.88621" lon="1.99003">
        <ele>171</ele>
        <time>2018-04-25T22:50:26Z</time>
      </trkpt>
      <trkpt lat="48.886" lon="1.98961">
        <ele>171</ele>
        <time>2018-04-25T22:51:26Z</time>
      </trkpt>
      <trkpt lat="48.88607" lon="1.98938">
        <ele>171</ele>
        <time>2018-04-25T22:52:26Z</time>
      </trkpt>
      <trkpt lat="48.88582" lon="1.98886">
        <ele>171</ele>
        <time>2018-04-25T22:53:26Z</time>
      </trkpt>
      <trkpt lat="48.88505" lon="1.989">
        <ele>176</ele>
        <time>2018-04-25T22:54:26Z</time>
      </trkpt>
      <trkpt lat="48.88457" lon="1.98912">
        <ele>176</ele>
        <time>2018-04-25T22:55:26Z</time>
      </trkpt>
      <trkpt lat="48.88378" lon="1.98923">
        <ele>177</ele>
        <time>2018-04-25T22:56:26Z</time>
      </trkpt>
      <trkpt lat="48.88327" lon="1.98928">
        <ele>178</ele>
        <time>2018-04-25T22:57:26Z</time>
      </trkpt>
      <trkpt lat="48.8826" lon="1.98944">
        <ele>182</ele>
        <time>2018-04-25T22:58:26Z</time>
      </trkpt>
      <trkpt lat="48.88222" lon="1.9895">
        <ele>182</ele>
        <time>2018-04-25T22:59:26Z</time>
      </trkpt>
      <trkpt lat="48.88139" lon="1.98965">
        <ele>181</ele>
        <time>2018-04-25T23:00:26Z</time>
      </trkpt>
      <trkpt lat="48.88048" lon="1.98987">
        <ele>182</ele>
        <time>2018-04-25T23:01:26Z</time>
      </trkpt>
      <trkpt lat="48.87979" lon="1.99011">
        <ele>182</ele>
        <time>2018-04-25T23:02:26Z</time>
      </trkpt>
      <trkpt lat="48.8796" lon="1.99041">
        <ele>181</ele>
        <time>2018-04-25T23:03:26Z</time>
      </trkpt>
      <trkpt lat="48.87955" lon="1.99123">
        <ele>180</ele>
        <time>2018-04-25T23:04:26Z</time>
      </trkpt>
      <trkpt lat="48.87952" lon="1.99202">
        <ele>179</ele>
        <time>2018-04-25T23:05:26Z</time>
      </trkpt>
      <trkpt lat="48.87951" lon="1.99303">
        <ele>178</ele>
        <time>2018-04-25T23:06:26Z</time>
      </trkpt>
      <trkpt lat="48.8795" lon="1.99422">
        <ele>176</ele>
        <time>2018-04-25T23:07:26Z</time>
      </trkpt>
      <trkpt lat="48.87948" lon="1.99526">
        <ele>176</ele>
        <time>2018-04-25T23:08:26Z</time>
      </trkpt>
      <trkpt lat="48.87945" lon="1.99626">
        <ele>176</ele>
        <time>2018-04-25T23:09:26Z</time>
      </trkpt>
      <trkpt lat="48.87939" lon="1.99798">
        <ele>179</ele>
        <time>2018-04-25T23:10:26Z</time>
      </trkpt>
      <trkpt lat="48.87872" lon="1.99867">
        <ele>182</ele>
        <time>2018-04-25T23:11:26Z</time>
      </trkpt>
      <trkpt lat="48.87831" lon="1.99909">
        <ele>182</ele>
        <time>2018-04-25T23:12:26Z</time>
      </trkpt>
      <trkpt lat="48.87779" lon="1.99953">
        <ele>183</ele>
        <time>2018-04-25T23:13:26Z</time>
      </trkpt>
      <trkpt lat="48.87733" lon="1.99998">
        <ele>185</ele>
        <time>2018-04-25T23:14:26Z</time>
      </trkpt>
      <trkpt lat="48.87706" lon="2.00057">
        <ele>182</ele>
        <time>2018-04-25T23:15:26Z</time>
      </trkpt>
      <trkpt lat="48.87685" lon="2.00148">
        <ele>183</ele>
        <time>2018-04-25T23:16:26Z</time>
      </trkpt>
      <trkpt lat="48.87661" lon="2.00255">
        <ele>180</ele>
        <time>2018-04-25T23:17:26Z</time>
      </trkpt>
      <trkpt lat="48.87651" lon="2.00295">
        <ele>178</ele>
        <time>2018-04-25T23:18:26Z</time>
      </trkpt>
      <trkpt lat="48.87634" lon="2.00357">
        <ele>176</ele>
        <time>2018-04-25T23:19:26Z</time>
      </trkpt>
      <trkpt lat="48.87616" lon="2.00432">
        <ele>177</ele>
        <time>2018-04-25T23:20:26Z</time>
      </trkpt>
      <trkpt lat="48.87601" lon="2.00502">
        <ele>181</ele>
        <time>2018-04-25T23:21:26Z</time>
      </trkpt>
      <trkpt lat="48.8757" lon="2.00621">
        <ele>187</ele>
        <time>2018-04-25T23:22:26Z</time>
      </trkpt>
      <trkpt lat="48.87547" lon="2.00718">
        <ele>188</ele>
        <time>2018-04-25T23:23:26Z</time>
      </trkpt>
      <trkpt lat="48.87527" lon="2.00808">
        <ele>189</ele>
        <time>2018-04-25T23:24:26Z</time>
      </trkpt>
      <trkpt lat="48.87511" lon="2.00886">
        <ele>189</ele>
        <time>2018-04-25T23:25:26Z</time>
      </trkpt>
      <trkpt lat="48.87471" lon="2.01045">
        <ele>183</ele>
        <time>2018-04-25T23:26:26Z</time>
      </trkpt>
      <trkpt lat="48.87445" lon="2.01153">
        <ele>179</ele>
        <time>2018-04-25T23:27:26Z</time>
      </trkpt>
      <trkpt lat="48.87431" lon="2.01207">
        <ele>178</ele>
        <time>2018-04-25T23:28:26Z</time>
      </trkpt>
      <trkpt lat="48.87421" lon="2.01249">
        <ele>178</ele>
        <time>2018-04-25T23:29:26Z</time>
      </trkpt>
      <trkpt lat="48.87409" lon="2.01306">
        <ele>179</ele>
        <time>2018-04-25T23:30:26Z</time>
      </trkpt>
      <trkpt lat="48.87397" lon="2.01352">
        <ele>180</ele>
        <time>2018-04-25T23:31:26Z</time>
      </trkpt>
      <trkpt lat="48.87389" lon="2.01389">
        <ele>180</ele>
        <time>2018-04-25T23:32:26Z</time>
      </trkpt>
      <trkpt lat="48.87382" lon="2.01425">
        <ele>181</ele>
        <time>2018-04-25T23:33:26Z</time>
      </trkpt>
      <trkpt lat="48.87372" lon="2.01464">
        <ele>182</ele>
        <time>2018-04-25T23:34:26Z</time>
      </trkpt>
      <trkpt lat="48.87362" lon="2.01505">
        <ele>184</ele>
        <time>2018-04-25T23:35:26Z</time>
      </trkpt>
      <trkpt lat="48.87349" lon="2.01569">
        <ele>186</ele>
        <time>2018-04-25T23:36:26Z</time>
      </trkpt>
      <trkpt lat="48.87332" lon="2.01635">
        <ele>187</ele>
        <time>2018-04-25T23:37:26Z</time>
      </trkpt>
      <trkpt lat="48.87313" lon="2.01713">
        <ele>186</ele>
        <time>2018-04-25T23:38:26Z</time>
      </trkpt>
      <trkpt lat="48.87284" lon="2.01838">
        <ele>184</ele>
        <time>2018-04-25T23:39:26Z</time>
      </trkpt>
      <trkpt lat="48.873" lon="2.01968">
        <ele>181</ele>
        <time>2018-04-25T23:40:26Z</time>
      </trkpt>
      <trkpt lat="48.87315" lon="2.02103">
        <ele>182</ele>
        <time>2018-04-25T23:41:26Z</time>
      </trkpt>
      <trkpt lat="48.87272" lon="2.02104">
        <ele>179</ele>
        <time>2018-04-25T23:42:26Z</time>
      </trkpt>
      <trkpt lat="48.87188" lon="2.02103">
        <ele>175</ele>
        <time>2018-04-25T23:43:26Z</time>
      </trkpt>
      <trkpt lat="48.87107" lon="2.02104">
        <ele>173</ele>
        <time>2018-04-25T23:44:26Z</time>
      </trkpt>
      <trkpt lat="48.87001" lon="2.02099">
        <ele>171</ele>
        <time>2018-04-25T23:45:26Z</time>
      </trkpt>
      <trkpt lat="48.86985" lon="2.02166">
        <ele>176</ele>
        <time>2018-04-25T23:46:26Z</time>
      </trkpt>
      <trkpt lat="48.86958" lon="2.02246">
        <ele>179</ele>
        <time>2018-04-25T23:47:26Z</time>
      </trkpt>
      <trkpt lat="48.86894" lon="2.0245">
        <ele>184</ele>
        <time>2018-04-25T23:48:26Z</time>
      </trkpt>
      <trkpt lat="48.86867" lon="2.02527">
        <ele>184</ele>
        <time>2018-04-25T23:49:26Z</time>
      </trkpt>
      <trkpt lat="48.86819" lon="2.0269">
        <ele>183</ele>
        <time>2018-04-25T23:50:26Z</time>
      </trkpt>
      <trkpt lat="48.86795" lon="2.02773">
        <ele>183</ele>
        <time>2018-04-25T23:51:26Z</time>
      </trkpt>
      <trkpt lat="48.86756" lon="2.02883">
        <ele>185</ele>
        <time>2018-04-25T23:52:26Z</time>
      </trkpt>
      <trkpt lat="48.86725" lon="2.02989">
        <ele>184</ele>
        <time>2018-04-25T23:53:26Z</time>
      </trkpt>
      <trkpt lat="48.867" lon="2.03057">
        <ele>183</ele>
        <time>2018-04-25T23:54:26Z</time>
      </trkpt>
      <trkpt lat="48.86695" lon="2.03098">
        <ele>184</ele>
        <time>2018-04-25T23:55:26Z</time>
      </trkpt>
      <trkpt lat="48.86675" lon="2.03134">
        <ele>183</ele>
        <time>2018-04-25T23:56:26Z</time>
      </trkpt>
      <trkpt lat="48.86643" lon="2.03161">
        <ele>178</ele>
        <time>2018-04-25T23:57:26Z</time>
      </trkpt>
      <trkpt lat="48.86624" lon="2.03213">
        <ele>175</ele>
        <time>2018-04-25T23:58:26Z</time>
      </trkpt>
      <trkpt lat="48.866" lon="2.0324">
        <ele>171</ele>
        <time>2018-04-25T23:59:26Z</time>
      </trkpt>
      <trkpt lat="48.86563" lon="2.03271">
        <ele>165</ele>
        <time>2018-04-26T00:00:26Z</time>
      </trkpt>
      <trkpt lat="48.86606" lon="2.0334">
        <ele>171</ele>
        <time>2018-04-26T00:01:26Z</time>
      </trkpt>
      <trkpt lat="48.86584" lon="2.03452">
        <ele>172</ele>
        <time>2018-04-26T00:02:26Z</time>
      </trkpt>
      <trkpt lat="48.86559" lon="2.03503">
        <ele>169</ele>
        <time>2018-04-26T00:03:26Z</time>
      </trkpt>
      <trkpt lat="48.86514" lon="2.03593">
        <ele>166</ele>
        <time>2018-04-26T00:04:26Z</time>
      </trkpt>
      <trkpt lat="48.86471" lon="2.03656">
        <ele>167</ele>
        <time>2018-04-26T00:05:26Z</time>
      </trkpt>
      <trkpt lat="48.86426" lon="2.03734">
        <ele>169</ele>
        <time>2018-04-26T00:06:26Z</time>
      </trkpt>
      <trkpt lat="48.86391" lon="2.03788">
        <ele>170</ele>
        <time>2018-04-26T00:07:26Z</time>
      </trkpt>
      <trkpt lat="48.8633" lon="2.03904">
        <ele>169</ele>
        <time>2018-04-26T00:08:26Z</time>
      </trkpt>
      <trkpt lat="48.8629" lon="2.0397">
        <ele>165</ele>
        <time>2018-04-26T00:09:26Z</time>
      </trkpt>
      <trkpt lat="48.86255" lon="2.04045">
        <ele>164</ele>
        <time>2018-04-26T00:10:26Z</time>
      </trkpt>
      <trkpt lat="48.86222" lon="2.04103">
        <ele>163</ele>
        <time>2018-04-26T00:11:26Z</time>
      </trkpt>
      <trkpt lat="48.86175" lon="2.04168">
        <ele>158</ele>
        <time>2018-04-26T00:12:26Z</time>
      </trkpt>
      <trkpt lat="48.86228" lon="2.04231">
        <ele>167</ele>
        <time>2018-04-26T00:13:26Z</time>
      </trkpt>
      <trkpt lat="48.86269" lon="2.04275">
        <ele>172</ele>
        <time>2018-04-26T00:14:26Z</time>
      </trkpt>
      <trkpt lat="48.86313" lon="2.04317">
        <ele>178</ele>
        <time>2018-04-26T00:15:26Z</time>
      </trkpt>
      <trkpt lat="48.86378" lon="2.04384">
        <ele>183</ele>
        <time>2018-04-26T00:16:26Z</time>
      </trkpt>
      <trkpt lat="48.86348" lon="2.04443">
        <ele>185</ele>
        <time>2018-04-26T00:17:26Z</time>
      </trkpt>
      <trkpt lat="48.86305" lon="2.04533">
        <ele>184</ele>
        <time>2018-04-26T00:18:26Z</time>
      </trkpt>
      <trkpt lat="48.86277" lon="2.04573">
        <ele>184</ele>
        <time>2018-04-26T00:19:26Z</time>
      </trkpt>
      <trkpt lat="48.86236" lon="2.04657">
        <ele>182</ele>
        <time>2018-04-26T00:20:26Z</time>
      </trkpt>
      <trkpt lat="48.86191" lon="2.04733">
        <ele>174</ele>
        <time>2018-04-26T00:21:26Z</time>
      </trkpt>
      <trkpt lat="48.86157" lon="2.04795">
        <ele>167</ele>
        <time>2018-04-26T00:22:26Z</time>
      </trkpt>
      <trkpt lat="48.86118" lon="2.04864">
        <ele>164</ele>
        <time>2018-04-26T00:23:26Z</time>
      </trkpt>
      <trkpt lat="48.86081" lon="2.04939">
        <ele>163</ele>
        <time>2018-04-26T00:24:26Z</time>
      </trkpt>
      <trkpt lat="48.86045" lon="2.05008">
        <ele>164</ele>
        <time>2018-04-26T00:25:26Z</time>
      </trkpt>
      <trkpt lat="48.86006" lon="2.05071">
        <ele>168</ele>
        <time>2018-04-26T00:26:26Z</time>
      </trkpt>
      <trkpt lat="48.85965" lon="2.05139">
        <ele>171</ele>
        <time>2018-04-26T00:27:26Z</time>
      </trkpt>
      <trkpt lat="48.85963" lon="2.0528">
        <ele>169</ele>
        <time>2018-04-26T00:28:26Z</time>
      </trkpt>
      <trkpt lat="48.85964" lon="2.05345">
        <ele>168</ele>
        <time>2018-04-26T00:29:26Z</time>
      </trkpt>
      <trkpt lat="48.85961" lon="2.05413">
        <ele>165</ele>
        <time>2018-04-26T00:30:26Z</time>
      </trkpt>
      <trkpt lat="48.85948" lon="2.05484">
        <ele>166</ele>
        <time>2018-04-26T00:31:26Z</time>
      </trkpt>
      <trkpt lat="48.85934" lon="2.05567">
        <ele>170</ele>
        <time>2018-04-26T00:32:26Z</time>
      </trkpt>
      <trkpt lat="48.85922" lon="2.05628">
        <ele>174</ele>
        <time>2018-04-26T00:33:26Z</time>
      </trkpt>
      <trkpt lat="48.85907" lon="2.05709">
        <ele>176</ele>
        <time>2018-04-26T00:34:26Z</time>
      </trkpt>
      <trkpt lat="48.85887" lon="2.05792">
        <ele>175</ele>
        <time>2018-04-26T00:35:26Z</time>
      </trkpt>
      <trkpt lat="48.85875" lon="2.05847">
        <ele>172</ele>
        <time>2018-04-26T00:36:26Z</time>
      </trkpt>
      <trkpt lat="48.85866" lon="2.05878">
        <ele>169</ele>
        <time>2018-04-26T00:37:26Z</time>
      </trkpt>
      <trkpt lat="48.85865" lon="2.05934">
        <ele>162</ele>
        <time>2018-04-26T00:38:26Z</time>
      </trkpt>
      <trkpt lat="48.85854" lon="2.05995">
        <ele>158</ele>
        <time>2018-04-26T00:39:26Z</time>
      </trkpt>
      <trkpt lat="48.85839" lon="2.0608">
        <ele>161</ele>
        <time>2018-04-26T00:40:26Z</time>
      </trkpt>
      <trkpt lat="48.85822" lon="2.06168">
        <ele>160</ele>
        <time>2018-04-26T00:41:26Z</time>
      </trkpt>
      <trkpt lat="48.85802" lon="2.06268">
        <ele>163</ele>
        <time>2018-04-26T00:42:26Z</time>
      </trkpt>
      <trkpt lat="48.85771" lon="2.06443">
        <ele>173</ele>
        <time>2018-04-26T00:43:26Z</time>
      </trkpt>
      <trkpt lat="48.85764" lon="2.06489">
        <ele>176</ele>
        <time>2018-04-26T00:44:26Z</time>
      </trkpt>
      <trkpt lat="48.85744" lon="2.06603">
        <ele>178</ele>
        <time>2018-04-26T00:45:26Z</time>
      </trkpt>
      <trkpt lat="48.85745" lon="2.067">
        <ele>178</ele>
        <time>2018-04-26T00:46:26Z</time>
      </trkpt>
      <trkpt lat="48.85743" lon="2.06795">
        <ele>178</ele>
        <time>2018-04-26T00:47:26Z</time>
      </trkpt>
      <trkpt lat="48.85743" lon="2.06909">
        <ele>169</ele>
        <time>2018-04-26T00:48:26Z</time>
      </trkpt>
      <trkpt lat="48.858" lon="2.06935">
        <ele>161</ele>
        <time>2018-04-26T00:49:26Z</time>
      </trkpt>
      <trkpt lat="48.85867" lon="2.06962">
        <ele>152</ele>
        <time>2018-04-26T00:50:26Z</time>
      </trkpt>
      <trkpt lat="48.85906" lon="2.07002">
        <ele>148</ele>
        <time>2018-04-26T00:51:26Z</time>
      </trkpt>
      <trkpt lat="48.85954" lon="2.07018">
        <ele>145</ele>
        <time>2018-04-26T00:52:26Z</time>
      </trkpt>
      <trkpt lat="48.85957" lon="2.071">
        <ele>145</ele>
        <time>2018-04-26T00:53:26Z</time>
      </trkpt>
      <trkpt lat="48.85957" lon="2.07167">
        <ele>144</ele>
        <time>2018-04-26T00:54:26Z</time>
      </trkpt>
      <trkpt lat="48.85948" lon="2.0724">
        <ele>144</ele>
        <time>2018-04-26T00:55:26Z</time>
      </trkpt>
      <trkpt lat="48.85933" lon="2.0731">
        <ele>144</ele>
        <time>2018-04-26T00:56:26Z</time>
      </trkpt>
      <trkpt lat="48.8591" lon="2.07352">
        <ele>145</ele>
        <time>2018-04-26T00:57:26Z</time>
      </trkpt>
      <trkpt lat="48.85927" lon="2.0744">
        <ele>141</ele>
        <time>2018-04-26T00:58:26Z</time>
      </trkpt>
      <trkpt lat="48.8594" lon="2.07527">
        <ele>142</ele>
        <time>2018-04-26T00:59:26Z</time>
      </trkpt>
      <trkpt lat="48.85948" lon="2.07596">
        <ele>142</ele>
        <time>2018-04-26T01:00:26Z</time>
      </trkpt>
      <trkpt lat="48.85957" lon="2.0766">
        <ele>142</ele>
        <time>2018-04-26T01:01:26Z</time>
      </trkpt>
      <trkpt lat="48.85966" lon="2.07709">
        <ele>141</ele>
        <time>2018-04-26T01:02:26Z</time>
      </trkpt>
      <trkpt lat="48.85976" lon="2.07748">
        <ele>140</ele>
        <time>2018-04-26T01:03:26Z</time>
      </trkpt>
      <trkpt lat="48.85985" lon="2.07806">
        <ele>140</ele>
        <time>2018-04-26T01:04:26Z</time>
      </trkpt>
      <trkpt lat="48.86013" lon="2.07873">
        <ele>140</ele>
        <time>2018-04-26T01:05:26Z</time>
      </trkpt>
      <trkpt lat="48.86036" lon="2.07921">
        <ele>141</ele>
        <time>2018-04-26T01:06:26Z</time>
      </trkpt>
      <trkpt lat="48.86059" lon="2.07945">
        <ele>143</ele>
        <time>2018-04-26T01:07:26Z</time>
      </trkpt>
      <trkpt lat="48.86093" lon="2.07974">
        <ele>146</ele>
        <time>2018-04-26T01:08:26Z</time>
      </trkpt>
      <trkpt lat="48.86119" lon="2.08022">
        <ele>152</ele>
        <time>2018-04-26T01:09:26Z</time>
      </trkpt>
      <trkpt lat="48.86192" lon="2.0806">
        <ele>162</ele>
        <time>2018-04-26T01:10:26Z</time>
      </trkpt>
      <trkpt lat="48.86248" lon="2.08093">
        <ele>169</ele>
        <time>2018-04-26T01:11:26Z</time>
      </trkpt>
      <trkpt lat="48.86306" lon="2.08124">
        <ele>174</ele>
        <time>2018-04-26T01:12:26Z</time>
      </trkpt>
      <trkpt lat="48.86335" lon="2.08144">
        <ele>175</ele>
        <time>2018-04-26T01:13:26Z</time>
      </trkpt>
      <trkpt lat="48.86385" lon="2.08185">
        <ele>174</ele>
        <time>2018-04-26T01:14:26Z</time>
      </trkpt>
      <trkpt lat="48.86382" lon="2.08171">
        <ele>174</ele>
        <time>2018-04-26T01:15:26Z</time>
      </trkpt>
    </trkseg>
  </trk>
</gpx>